createdAt,value
2023-03-06T00:00:26.414Z,37.55
2023-03-06T00:02:53.347Z,42.45
2023-03-06T00:05:20.115Z,39.28
2023-03-06T00:07:46.784Z,31.35
2023-03-06T00:10:25.303Z,27.80
2023-03-06T00:12:53.754Z,34.03
2023-03-06T00:15:21.210Z,33.83
2023-03-06T00:20:14.873Z,28.15
2023-03-06T00:22:42.149Z,29.20
2023-03-06T00:25:14.334Z,31.20
2023-03-06T00:27:41.362Z,30.60
2023-03-06T00:30:11.281Z,31.55
2023-03-06T00:32:38.025Z,34.75
2023-03-06T00:35:05.172Z,28.10
2023-03-06T00:37:31.988Z,27.23
2023-03-06T00:39:58.695Z,32.90
2023-03-06T00:42:25.675Z,32.67
2023-03-06T00:44:52.441Z,29.35
2023-03-06T00:47:19.088Z,32.67
2023-03-06T00:49:45.964Z,37.55
2023-03-06T00:52:13.273Z,35.50
2023-03-06T00:54:40.813Z,29.77
2023-03-06T00:57:08.165Z,25.17
2023-03-06T01:02:02.260Z,27.20
2023-03-06T01:06:55.901Z,28.17
2023-03-06T01:09:24.372Z,29.20
2023-03-06T01:11:53.777Z,30.35
2023-03-06T01:14:20.876Z,28.58
2023-03-06T01:16:48.241Z,28.13
2023-03-06T01:19:17.737Z,34.47
2023-03-06T01:21:45.306Z,31.02
2023-03-06T01:24:12.027Z,22.70
2023-03-06T01:26:38.803Z,21.50
2023-03-06T01:29:06.440Z,39.15
2023-03-06T01:31:33.456Z,36.05
2023-03-06T01:34:00.661Z,26.63
2023-03-06T01:36:27.431Z,34.38
2023-03-06T01:38:54.090Z,27.60
2023-03-06T01:41:21.490Z,27.17
2023-03-06T01:43:49.061Z,32.30
2023-03-06T01:46:24.828Z,29.00
2023-03-06T01:48:56.481Z,26.23
2023-03-06T01:51:27.215Z,29.33
2023-03-06T01:53:55.592Z,33.33
2023-03-06T01:56:23.304Z,34.72
2023-03-06T01:58:51.253Z,30.33
2023-03-06T02:01:18.931Z,28.52
2023-03-06T02:03:47.329Z,27.70
2023-03-06T02:06:19.560Z,25.83
2023-03-06T02:08:49.548Z,31.08
2023-03-06T02:11:24.474Z,33.42
2023-03-06T02:13:53.567Z,31.48
2023-03-06T02:16:29.682Z,30.50
2023-03-06T02:18:58.446Z,29.30
2023-03-06T02:21:34.193Z,33.55
2023-03-06T02:24:23.886Z,29.60
2023-03-06T02:26:51.210Z,30.45
2023-03-06T02:29:24.396Z,29.67
2023-03-06T02:31:51.266Z,32.03
2023-03-06T02:34:21.031Z,27.80
2023-03-06T02:36:50.729Z,32.10
2023-03-06T02:39:21.600Z,33.47
2023-03-06T02:41:48.538Z,32.70
2023-03-06T02:44:16.486Z,31.00
2023-03-06T02:46:43.201Z,22.85
2023-03-06T02:49:10.063Z,29.27
2023-03-06T02:51:36.727Z,29.10
2023-03-06T02:54:03.565Z,30.83
2023-03-06T02:56:30.317Z,32.28
2023-03-06T03:02:16.496Z,35.43
2023-03-06T03:04:44.648Z,29.17
2023-03-06T03:07:11.691Z,32.33
2023-03-06T03:09:39.168Z,31.95
2023-03-06T03:12:06.956Z,32.75
2023-03-06T03:14:34.150Z,36.28
2023-03-06T03:17:02.323Z,33.35
2023-03-06T03:19:29.198Z,31.25
2023-03-06T03:21:56.185Z,33.92
2023-03-06T03:24:24.214Z,32.72
2023-03-06T03:29:19.907Z,34.08
2023-03-06T03:31:48.007Z,33.58
2023-03-06T03:34:15.182Z,30.30
2023-03-06T03:36:42.685Z,31.05
2023-03-06T03:39:12.152Z,32.92
2023-03-06T03:41:41.504Z,29.27
2023-03-06T03:44:09.825Z,33.20
2023-03-06T03:46:36.914Z,32.30
2023-03-06T03:49:06.923Z,34.47
2023-03-06T03:51:33.981Z,33.17
2023-03-06T03:54:00.790Z,32.58
2023-03-06T03:56:32.913Z,34.67
2023-03-06T03:59:10.931Z,36.05
2023-03-06T04:01:45.864Z,28.15
2023-03-06T04:04:13.011Z,32.05
2023-03-06T04:06:41.283Z,29.13
2023-03-06T04:09:08.160Z,31.55
2023-03-06T04:11:36.428Z,32.83
2023-03-06T04:14:03.518Z,33.10
2023-03-06T04:18:57.612Z,33.97
2023-03-06T04:21:24.519Z,31.48
2023-03-06T04:23:52.074Z,30.50
2023-03-06T04:26:19.905Z,36.28
2023-03-06T04:28:46.640Z,30.38
2023-03-06T04:31:14.806Z,36.70
2023-03-06T04:33:41.687Z,36.42
2023-03-06T04:36:23.790Z,31.42
2023-03-06T04:38:51.480Z,31.83
2023-03-06T04:41:18.332Z,32.83
2023-03-06T04:43:46.136Z,38.25
2023-03-06T04:46:12.804Z,35.70
2023-03-06T04:48:39.680Z,25.90
2023-03-06T04:51:06.444Z,31.73
2023-03-06T04:53:33.230Z,37.83
2023-03-06T04:55:59.935Z,39.05
2023-03-06T04:58:26.655Z,38.25
2023-03-06T05:00:53.338Z,42.95
2023-03-06T05:03:20.244Z,27.00
2023-03-06T05:05:46.942Z,28.23
2023-03-06T05:08:15.423Z,33.70
2023-03-06T05:10:43.330Z,33.65
2023-03-06T05:13:10.480Z,41.30
2023-03-06T05:15:39.537Z,31.73
2023-03-06T05:18:06.413Z,29.30
2023-03-06T05:20:33.687Z,34.13
2023-03-06T05:25:27.070Z,32.72
2023-03-06T05:27:53.730Z,45.47
2023-03-06T05:30:22.436Z,32.72
2023-03-06T05:32:50.005Z,30.98
2023-03-06T05:35:20.003Z,33.45
2023-03-06T05:37:47.261Z,32.20
2023-03-06T05:40:15.248Z,32.28
2023-03-06T05:42:42.373Z,38.15
2023-03-06T05:45:09.999Z,41.90
2023-03-06T05:47:36.874Z,39.97
2023-03-06T05:50:04.740Z,34.33
2023-03-06T05:52:31.444Z,42.13
2023-03-06T05:54:58.104Z,30.67
2023-03-06T05:57:25.888Z,26.38
2023-03-06T05:59:52.662Z,34.55
2023-03-06T06:02:19.744Z,35.58
2023-03-06T06:04:46.571Z,34.40
2023-03-06T06:07:16.703Z,28.67
2023-03-06T06:09:45.496Z,31.77
2023-03-06T06:12:12.660Z,30.08
2023-03-06T06:14:39.393Z,33.85
2023-03-06T06:17:06.197Z,25.33
2023-03-06T06:19:33.064Z,42.90
2023-03-06T06:22:02.460Z,45.35
2023-03-06T06:24:29.408Z,48.20
2023-03-06T06:26:57.724Z,58.33
2023-03-06T06:29:26.018Z,62.08
2023-03-06T06:31:53.185Z,61.40
2023-03-06T06:34:21.237Z,64.63
2023-03-06T06:36:48.396Z,49.38
2023-03-06T06:39:17.202Z,51.65
2023-03-06T06:42:02.365Z,46.78
2023-03-06T06:44:31.362Z,55.75
2023-03-06T06:47:21.802Z,40.83
2023-03-06T06:49:49.113Z,50.60
2023-03-06T06:52:15.897Z,34.42
2023-03-06T06:54:42.553Z,31.27
2023-03-06T06:57:11.762Z,44.70
2023-03-06T06:59:38.587Z,49.35
2023-03-06T07:02:05.808Z,33.55
2023-03-06T07:04:32.528Z,52.75
2023-03-06T07:06:59.887Z,53.20
2023-03-06T07:11:53.422Z,51.08
2023-03-06T07:14:20.114Z,56.38
2023-03-06T07:16:46.807Z,27.33
2023-03-06T07:19:13.545Z,41.85
2023-03-06T07:21:40.534Z,46.35
2023-03-06T07:24:07.372Z,46.15
2023-03-06T07:26:34.896Z,36.72
2023-03-06T07:29:02.415Z,36.72
2023-03-06T07:33:55.971Z,34.35
2023-03-06T07:36:23.796Z,42.90
2023-03-06T07:38:50.606Z,45.85
2023-03-06T07:41:20.380Z,36.63
2023-03-06T07:43:49.028Z,39.90
2023-03-06T07:46:17.296Z,44.95
2023-03-06T07:48:44.513Z,42.60
2023-03-06T07:51:16.688Z,45.30
2023-03-06T07:53:43.523Z,46.70
2023-03-06T07:56:11.738Z,46.58
2023-03-06T07:58:41.278Z,41.30
2023-03-06T08:01:11.402Z,42.20
2023-03-06T08:03:38.337Z,39.83
2023-03-06T08:06:16.909Z,44.00
2023-03-06T08:08:45.206Z,39.03
2023-03-06T08:11:13.927Z,44.67
2023-03-06T08:13:40.774Z,35.58
2023-03-06T08:16:08.017Z,41.92
2023-03-06T08:18:35.257Z,40.78
2023-03-06T08:21:16.635Z,42.58
2023-03-06T08:23:43.843Z,42.53
2023-03-06T08:26:19.206Z,44.78
2023-03-06T08:28:46.398Z,40.05
2023-03-06T08:31:25.040Z,41.20
2023-03-06T08:33:52.301Z,36.72
2023-03-06T08:36:19.426Z,40.78
2023-03-06T08:38:46.144Z,41.60
2023-03-06T08:41:13.390Z,36.65
2023-03-06T08:43:40.281Z,45.08
2023-03-06T08:46:07.081Z,41.88
2023-03-06T08:48:33.851Z,41.30
2023-03-06T08:51:00.541Z,49.83
2023-03-06T08:53:41.582Z,48.30
2023-03-06T08:56:14.425Z,46.25
2023-03-06T08:58:41.097Z,40.85
2023-03-06T09:01:20.712Z,42.95
2023-03-06T09:03:48.054Z,43.05
2023-03-06T09:08:44.340Z,43.85
2023-03-06T09:11:12.586Z,45.60
2023-03-06T09:13:39.339Z,51.97
2023-03-06T09:16:06.565Z,41.50
2023-03-06T09:18:33.448Z,42.53
2023-03-06T09:21:00.318Z,36.00
2023-03-06T09:23:27.039Z,41.50
2023-03-06T09:25:55.620Z,42.42
2023-03-06T09:28:22.757Z,46.15
2023-03-06T09:30:49.521Z,41.78
2023-03-06T09:33:16.627Z,39.30
2023-03-06T09:35:56.377Z,34.45
2023-03-06T09:38:26.102Z,35.95
2023-03-06T09:41:04.896Z,40.20
2023-03-06T09:43:35.291Z,36.60
2023-03-06T09:46:13.348Z,34.90
2023-03-06T09:48:53.625Z,39.83
2023-03-06T09:51:25.216Z,33.05
2023-03-06T09:54:13.354Z,37.53
2023-03-06T09:56:45.911Z,36.83
2023-03-06T09:59:25.286Z,30.63
2023-03-06T10:02:18.781Z,29.10
2023-03-06T10:04:59.527Z,33.72
2023-03-06T10:07:48.315Z,34.33
2023-03-06T10:10:28.208Z,36.28
2023-03-06T10:13:05.838Z,28.73
2023-03-06T10:15:35.953Z,31.70
2023-03-06T10:18:03.477Z,32.38
2023-03-06T10:21:19.513Z,39.60
2023-03-06T10:23:54.836Z,36.13
2023-03-06T10:26:37.940Z,34.50
2023-03-06T10:29:14.520Z,29.20
2023-03-06T10:31:49.584Z,36.33
2023-03-06T10:34:32.494Z,30.88
2023-03-06T10:37:06.191Z,31.77
2023-03-06T10:39:32.890Z,32.53
2023-03-06T10:41:59.834Z,30.33
2023-03-06T10:44:26.607Z,29.25
2023-03-06T10:46:54.506Z,31.20
2023-03-06T10:49:31.169Z,28.33
2023-03-06T10:52:04.207Z,31.20
2023-03-06T10:54:37.147Z,30.27
2023-03-06T10:57:31.032Z,30.13
2023-03-06T10:59:58.937Z,27.50
2023-03-06T11:02:33.184Z,32.78
2023-03-06T11:05:01.290Z,30.50
2023-03-06T11:07:30.571Z,28.58
2023-03-06T11:09:57.399Z,34.05
2023-03-06T11:12:34.247Z,32.97
2023-03-06T11:15:14.483Z,31.27
2023-03-06T11:17:57.775Z,34.05
2023-03-06T11:20:49.990Z,32.00
2023-03-06T11:23:21.645Z,31.02
2023-03-06T11:26:06.970Z,31.25
2023-03-06T11:28:40.775Z,31.23
2023-03-06T11:31:13.682Z,31.55
2023-03-06T11:33:48.796Z,33.25
2023-03-06T11:36:16.461Z,34.10
2023-03-06T11:38:50.980Z,34.30
2023-03-06T11:41:31.382Z,36.75
2023-03-06T11:44:24.370Z,37.90
2023-03-06T11:47:01.063Z,33.55
2023-03-06T11:49:43.321Z,34.15
2023-03-06T11:52:22.485Z,41.13
2023-03-06T11:54:55.054Z,34.85
2023-03-06T11:57:44.399Z,35.25
2023-03-06T12:00:22.304Z,32.83
2023-03-06T12:05:55.528Z,36.58
2023-03-06T12:08:51.192Z,33.47
2023-03-06T12:11:24.161Z,31.45
2023-03-06T12:14:09.544Z,39.33
2023-03-06T12:17:26.923Z,37.67
2023-03-06T12:20:14.272Z,37.30
2023-03-06T12:22:57.543Z,37.53
2023-03-06T12:25:38.806Z,36.88
2023-03-06T12:28:31.538Z,38.67
2023-03-06T12:31:03.716Z,33.95
2023-03-06T12:33:50.567Z,32.55
2023-03-06T12:36:52.437Z,36.35
2023-03-06T12:39:30.908Z,32.88
2023-03-06T12:42:23.093Z,31.45
2023-03-06T12:45:09.299Z,41.47
2023-03-06T12:47:42.404Z,37.80
2023-03-06T12:50:27.151Z,34.15
2023-03-06T12:52:56.448Z,34.97
2023-03-06T12:55:25.994Z,40.60
2023-03-06T12:57:53.821Z,38.30
2023-03-06T13:00:32.551Z,39.63
2023-03-06T13:03:17.070Z,34.30
2023-03-06T13:06:04.004Z,34.20
2023-03-06T13:08:50.909Z,35.30
2023-03-06T13:11:41.774Z,35.70
2023-03-06T13:14:37.568Z,39.80
2023-03-06T13:17:25.872Z,37.72
2023-03-06T13:20:14.674Z,36.20
2023-03-06T13:22:43.575Z,33.50
2023-03-06T13:25:30.517Z,40.72
2023-03-06T13:27:57.173Z,45.95
2023-03-06T13:30:45.185Z,42.35
2023-03-06T13:33:26.896Z,40.08
2023-03-06T13:35:55.215Z,36.30
2023-03-06T13:38:30.758Z,39.92
2023-03-06T13:41:26.009Z,40.13
2023-03-06T13:43:55.235Z,36.20
2023-03-06T13:46:26.085Z,39.50
2023-03-06T13:49:29.735Z,38.58
2023-03-06T13:52:05.870Z,36.50
2023-03-06T13:54:39.893Z,36.90
2023-03-06T13:57:39.948Z,31.77
2023-03-06T14:00:29.510Z,41.63
2023-03-06T14:03:18.417Z,38.00
2023-03-06T14:05:47.778Z,34.75
2023-03-06T14:08:31.289Z,34.13
2023-03-06T14:11:05.262Z,43.22
2023-03-06T14:13:47.224Z,40.95
2023-03-06T14:16:26.050Z,36.70
2023-03-06T14:18:55.506Z,40.25
2023-03-06T14:21:30.888Z,34.00
2023-03-06T14:24:00.777Z,46.65
2023-03-06T14:26:31.684Z,41.20
2023-03-06T14:29:00.469Z,38.15
2023-03-06T14:31:34.453Z,44.05
2023-03-06T14:34:02.748Z,43.55
2023-03-06T14:36:47.875Z,41.60
2023-03-06T14:39:33.445Z,39.05
2023-03-06T14:42:20.652Z,42.60
2023-03-06T14:44:48.979Z,39.60
2023-03-06T14:47:34.016Z,45.08
2023-03-06T14:50:21.460Z,38.65
2023-03-06T14:52:49.636Z,37.00
2023-03-06T14:55:19.699Z,37.53
2023-03-06T14:58:19.072Z,38.78
2023-03-06T15:00:50.280Z,38.10
2023-03-06T15:07:12.967Z,39.35
2023-03-06T15:09:46.356Z,37.33
2023-03-06T15:12:19.703Z,37.70
2023-03-06T15:15:10.456Z,41.22
2023-03-06T15:17:45.670Z,38.97
2023-03-06T15:20:52.652Z,43.13
2023-03-06T15:23:26.317Z,41.13
2023-03-06T15:25:58.981Z,35.30
2023-03-06T15:28:38.435Z,35.33
2023-03-06T15:31:19.338Z,37.95
2023-03-06T15:34:00.357Z,42.67
2023-03-06T15:36:29.716Z,39.20
2023-03-06T15:38:56.792Z,39.00
2023-03-06T15:41:26.765Z,38.22
2023-03-06T15:43:53.510Z,39.15
2023-03-06T15:46:20.370Z,37.85
2023-03-06T15:49:04.190Z,37.55
2023-03-06T15:51:33.900Z,40.40
2023-03-06T15:54:11.364Z,37.58
2023-03-06T15:59:10.724Z,38.63
2023-03-06T16:01:37.609Z,38.83
2023-03-06T16:04:04.510Z,43.22
2023-03-06T16:06:31.252Z,46.22
2023-03-06T16:08:57.908Z,41.45
2023-03-06T16:11:38.569Z,42.78
2023-03-06T16:14:21.232Z,44.92
2023-03-06T16:16:48.736Z,45.90
2023-03-06T16:19:28.185Z,40.78
2023-03-06T16:21:56.401Z,37.03
2023-03-06T16:24:23.388Z,38.45
2023-03-06T16:26:52.846Z,41.55
2023-03-06T16:29:24.607Z,40.58
2023-03-06T16:31:54.987Z,39.13
2023-03-06T16:34:21.822Z,47.13
2023-03-06T16:36:49.308Z,39.20
2023-03-06T16:39:18.940Z,42.60
2023-03-06T16:41:46.046Z,49.47
2023-03-06T16:44:13.034Z,40.65
2023-03-06T16:46:45.650Z,44.13
2023-03-06T16:49:22.426Z,43.03
2023-03-06T16:51:49.929Z,47.72
2023-03-06T16:54:17.464Z,44.42
2023-03-06T16:56:44.741Z,43.85
2023-03-06T17:01:40.868Z,39.55
2023-03-06T17:04:07.635Z,54.13
2023-03-06T17:06:34.334Z,64.95
2023-03-06T17:09:01.062Z,61.67
2023-03-06T17:11:27.980Z,46.38
2023-03-06T17:13:55.338Z,61.58
2023-03-06T17:18:49.657Z,41.03
2023-03-06T17:23:44.486Z,37.83
2023-03-06T17:26:18.752Z,42.72
2023-03-06T17:28:46.593Z,34.70
2023-03-06T17:31:14.716Z,35.47
2023-03-06T17:33:41.932Z,30.70
2023-03-06T17:36:09.932Z,31.75
2023-03-06T17:38:36.647Z,31.75
2023-03-06T17:41:07.534Z,38.92
2023-03-06T17:43:34.276Z,34.30
2023-03-06T17:46:09.593Z,28.52
2023-03-06T17:48:37.183Z,29.85
2023-03-06T17:51:05.068Z,29.98
2023-03-06T17:53:32.164Z,31.27
2023-03-06T17:55:59.133Z,34.80
2023-03-06T17:58:26.746Z,32.92
2023-03-06T18:00:53.863Z,29.95
2023-03-06T18:03:20.951Z,30.95
2023-03-06T18:05:47.682Z,27.73
2023-03-06T18:08:14.464Z,33.45
2023-03-06T18:10:43.225Z,31.98
2023-03-06T18:13:10.422Z,35.92
2023-03-06T18:15:41.032Z,32.47
2023-03-06T18:18:08.547Z,34.55
2023-03-06T18:20:41.044Z,41.25
2023-03-06T18:23:07.952Z,32.35
2023-03-06T18:25:34.841Z,32.65
2023-03-06T18:28:01.758Z,31.38
2023-03-06T18:30:28.462Z,33.67
2023-03-06T18:32:55.210Z,36.80
2023-03-06T18:35:22.052Z,32.88
2023-03-06T18:37:48.819Z,28.35
2023-03-06T18:40:15.604Z,29.60
2023-03-06T18:42:42.329Z,22.95
2023-03-06T18:45:10.478Z,30.35
2023-03-06T18:47:37.213Z,31.95
2023-03-06T18:50:04.114Z,32.33
2023-03-06T18:52:30.795Z,44.83
2023-03-06T18:54:57.479Z,19.85
2023-03-06T18:57:24.140Z,33.58
2023-03-06T18:59:50.814Z,36.70
2023-03-06T19:02:17.514Z,40.42
2023-03-06T19:04:44.199Z,34.63
2023-03-06T19:07:13.051Z,23.02
2023-03-06T19:09:39.851Z,34.13
2023-03-06T19:12:06.904Z,36.40
2023-03-06T19:14:33.666Z,33.92
2023-03-06T19:17:00.362Z,26.15
2023-03-06T19:19:29.234Z,55.17
2023-03-06T19:21:58.158Z,63.75
2023-03-06T19:24:24.886Z,63.55
2023-03-06T19:26:51.914Z,55.47
2023-03-06T19:29:18.830Z,56.75
2023-03-06T19:31:45.579Z,39.60
2023-03-06T19:34:12.316Z,34.75
2023-03-06T19:36:40.666Z,38.42
2023-03-06T19:39:07.869Z,31.88
2023-03-06T19:41:35.387Z,39.60
2023-03-06T19:44:03.359Z,29.27
2023-03-06T19:46:31.650Z,35.33
2023-03-06T19:49:01.248Z,34.42
2023-03-06T19:51:28.579Z,38.30
2023-03-06T19:53:56.740Z,36.10
2023-03-06T19:56:30.125Z,28.30
2023-03-06T19:58:57.328Z,32.80
2023-03-06T20:01:25.831Z,36.10
2023-03-06T20:03:59.660Z,32.22
2023-03-06T20:06:29.616Z,34.92
2023-03-06T20:08:56.301Z,32.30
2023-03-06T20:11:26.113Z,33.15
2023-03-06T20:13:54.369Z,32.95
2023-03-06T20:16:21.126Z,33.70
2023-03-06T20:18:47.797Z,33.95
2023-03-06T20:21:15.708Z,33.35
2023-03-06T20:23:43.184Z,35.70
2023-03-06T20:26:12.946Z,39.58
2023-03-06T20:28:41.388Z,38.50
2023-03-06T20:31:22.401Z,40.83
2023-03-06T20:33:51.302Z,42.60
2023-03-06T20:36:29.522Z,43.53
2023-03-06T20:38:58.897Z,44.72
2023-03-06T20:41:28.448Z,42.75
2023-03-06T20:43:55.141Z,34.90
2023-03-06T20:46:23.220Z,36.88
2023-03-06T20:48:51.962Z,37.05
2023-03-06T20:51:28.539Z,41.63
2023-03-06T20:53:55.675Z,43.63
2023-03-06T20:56:29.135Z,38.40
2023-03-06T20:58:56.219Z,39.60
2023-03-06T21:01:59.633Z,34.35
2023-03-06T21:04:26.343Z,40.65
2023-03-06T21:06:54.025Z,39.95
2023-03-06T21:09:21.020Z,39.60
2023-03-06T21:11:48.386Z,40.85
2023-03-06T21:16:42.815Z,36.88
2023-03-06T21:19:10.568Z,41.50
2023-03-06T21:21:37.444Z,52.80
2023-03-06T21:24:04.348Z,44.22
2023-03-06T21:26:33.673Z,40.63
2023-03-06T21:29:01.429Z,46.25
2023-03-06T21:31:28.880Z,41.20
2023-03-06T21:33:56.918Z,49.58
2023-03-06T21:36:23.676Z,56.97
2023-03-06T21:38:52.236Z,44.80
2023-03-06T21:41:24.685Z,49.00
2023-03-06T21:43:59.655Z,42.92
2023-03-06T21:46:27.750Z,45.63
2023-03-06T21:48:55.122Z,37.15
2023-03-06T21:51:23.659Z,37.63
2023-03-06T21:53:51.780Z,37.60
2023-03-06T21:56:20.307Z,41.67
2023-03-06T21:58:47.446Z,35.03
2023-03-06T22:01:19.175Z,41.15
2023-03-06T22:03:46.143Z,43.97
2023-03-06T22:06:15.652Z,48.95
2023-03-06T22:08:42.535Z,40.13
2023-03-06T22:11:12.094Z,36.40
2023-03-06T22:13:39.299Z,37.30
2023-03-06T22:16:06.696Z,42.72
2023-03-06T22:21:00.303Z,36.47
2023-03-06T22:23:27.204Z,43.33
2023-03-06T22:25:53.908Z,33.72
2023-03-06T22:28:20.666Z,27.67
2023-03-06T22:30:47.378Z,36.88
2023-03-06T22:33:14.039Z,36.42
2023-03-06T22:35:40.750Z,30.52
2023-03-06T22:38:07.496Z,34.40
2023-03-06T22:40:34.341Z,32.65
2023-03-06T22:43:01.028Z,30.77
2023-03-06T22:45:27.754Z,36.03
2023-03-06T22:48:02.351Z,24.23
2023-03-06T22:50:35.988Z,29.38
2023-03-06T22:53:02.663Z,34.67
2023-03-06T22:55:29.354Z,29.75
2023-03-06T22:57:56.051Z,38.40
2023-03-06T23:00:23.506Z,34.00
2023-03-06T23:02:50.195Z,35.38
2023-03-06T23:05:16.877Z,28.88
2023-03-06T23:07:43.543Z,35.03
2023-03-06T23:10:10.778Z,32.38
2023-03-06T23:12:56.268Z,30.13
2023-03-06T23:15:41.733Z,32.80
2023-03-06T23:18:28.608Z,29.65
2023-03-06T23:21:16.810Z,30.70
2023-03-06T23:24:02.828Z,18.05
2023-03-06T23:26:31.773Z,29.67
2023-03-06T23:28:58.538Z,30.02
2023-03-06T23:31:30.035Z,34.13
2023-03-06T23:33:58.408Z,26.90
2023-03-06T23:36:25.206Z,34.60
2023-03-06T23:38:52.100Z,26.58
2023-03-06T23:41:20.458Z,28.98
2023-03-06T23:43:48.267Z,28.70
2023-03-06T23:46:15.276Z,30.30
2023-03-06T23:48:43.582Z,31.67
2023-03-06T23:51:17.692Z,27.98
2023-03-06T23:53:45.619Z,30.23
2023-03-06T23:56:12.741Z,30.90
2023-03-06T23:58:40.797Z,29.92
